Terminal Aerodrome Forecast
Issued by NWS

Current Version | Previous Version | Text Only | Print | Product List | Glossary On
Versions: 1 2 3 4 5 6 7 8 9 10 11 12 13 14 15 16 17 18
000
FTUS41 KCAR 190520
TAFHUL
TAF
KHUL 190520Z 1906/2006 VRB05KT 5SM BR OVC009
     FM190900 15008KT 2SM BR VCSH OVC005
     FM191400 15008KT P6SM OVC008
     FM200000 15007KT P6SM VCSH OVC012=

USA.gov is the U.S. government's official web portal to all federal, state and local government web resources and services.